Saturday, December 20, 2014
23:41 UTC
  |  Log In   |  Register Free
Airport Search:

Mount Sterling-Montgomery County Airport
(KIOB)

Mount Sterling-Montgomery County Airport Diagram
No Airport Diagram Available

FAA data valid effective November 13, 2014 - January 08, 2015 (unless otherwise noted).

 
 
 
 
 
 
 
 
 
 
 
 
 
 

Current Aviation Weather for Mount Sterling-Montgomery County Airport (KIOB)

The most recent METAR observation for KIOB was updated at: 2115
METAR Summary (Translated METAR)
KIOB
182055Z AUTO 00000KT 10SM SCT018 SCT080 OVC090 00/M03 A3020 RMK AO2
KSYM
182110Z AUTO 00000KT 10SM FEW020 SCT090 M00/M05 A3021 RMK AO2
(20.8 nm NE from KIOB)
KLEX
182054Z 34003KT 8SM BKN018 OVC085 M01/M04 A3020 RMK AO2 SLP234 T10061044 55007
(29.6 nm SW from KIOB)
TAF Summary (Translated TAF)
KSYM
(20.8 nm NE from KIOB)
201739Z 2018/2118 VRB03KT P6SM BKN015 BKN050 FM201900 VRB03KT P6SM FEW015 BKN050 FM211200 VRB03KT P6SM FEW060 SCT250
KLEX
(29.6 nm SW from KIOB)
202247Z 2023/2118 01004KT P6SM BKN025 FM210100 01004KT P6SM SCT025 BKN040 FM210900 06003KT P6SM BKN040 FM211200 09004KT P6SM SCT040
  Airport Weather Conditions for KIOB

 Current Weather at IOB
32° F
Overcast
North winds at 3.5 mph
IOB NOAA Radar

Pressure: 30.26 in
Humidity: 87%
Wind: North at 3.5 MPH (3 KT)
Dew Point: 28.4°F
Visibility: 10.00 mi


Airport Weather Forecast for KIOB

Translated METAR and TAF for KIOB
Translated METAR for KIOB (2342 UTC 20 December 2014)
found at http://aviationweather.gov/adds/metars/
 
METAR text: KIOB 202335Z AUTO 03003KT 10SM OVC018 00/M02 A3028 RMK AO2
Conditions at: KIOB (MOUNT STERLING , KY, US) observed 2335 UTC 20 December 2014
Temperature: 0.0°C (32°F)
Dewpoint: -2.0°C (28°F) [RH = 86%]
Pressure (altimeter): 30.28 inches Hg (1025.5 mb)
Winds: from the NNE (30 degrees) at 3 MPH (3 knots; 1.6 m/s)
Visibility: 10 or more miles (16+ km)
Ceiling: 1800 feet AGL
Clouds: overcast cloud deck at 1800 feet AGL
Weather: automated observation with no human augmentation;
there may or may not be significant weather present at this time
Translated TAF for KIOB

There is no translated TAF available for this airport

Find All Airport Services Find A Hotel Find A Rental Car Find A Golf Course Find A Restaurant $100 Hamburger



FBO's on the Field
FBO Company Facility Photos Services Transportation Aviation Fuel Prices: Prices include tax
Catering Weather Repair Courtesy Rental Type 100LL JetA JetA+ MOGAS 8087
 
Kentucky Airmotive Inc

This FBO has not yet been rated
FS:Shell
Last Updated: Nov-18
Login to update fuel prices
SS:
Contact Kentucky Airmotive IncMore FBO Information
 
Add another FBO Facility Photos Catering Weather Repair Courtesy Rental Type 100LL JetA JetA+ MOGAS 8087
Services Transportation Aviation Fuel Prices: Prices include tax


model-print
model-print
model-print
model-print